Ludwig Schulte — 9VFK9 — position and weather

sailwx.info

Track history (hours):
 
Tides and Currents Weather Stations Pressure Air Temp Water Temp Dewpoint Dewpoint Depression Visibility Wind Speed Wind Dir Waves Ship Positions

Ludwig Schulte

Last reported at 2017-Oct-17 18:28 UTC. Time now 2017-Oct-17 18:50 UTC.
Position N 44°06' E 028°40'.

Length 175 m; draft 8.9 m.

Type: Ship (hazmat cat A). MMSI: 565970000.

Date/timePositionNaut miles runAvg speedWind from/ knotsBaromVisibWave heightAir tempDewpointWater temp
2017-Oct-17 18:28N 44°06' E 028°40'0 0.0
2017-Oct-17 17:58N 44°06' E 028°40'0 0.0
2017-Oct-17 17:28N 44°06' E 028°40'0 0.0
2017-Oct-17 16:58N 44°06' E 028°40'0 0.0
2017-Oct-17 16:28N 44°06' E 028°40'0 0.0
2017-Oct-17 15:58N 44°06' E 028°40'0 0.0
2017-Oct-17 15:19N 44°06' E 028°40'0 0.0
2017-Oct-17 14:58N 44°06' E 028°40'0 0.0
2017-Oct-17 14:28N 44°06' E 028°40'0 0.0
2017-Oct-17 13:58N 44°06' E 028°40'0 0.0
2017-Oct-17 13:28N 44°06' E 028°40'0 0.0
2017-Oct-17 12:58N 44°06' E 028°40'0 0.0
2017-Oct-17 12:28N 44°06' E 028°40'0 0.0
2017-Oct-17 11:58N 44°06' E 028°40'0 0.0
2017-Oct-17 11:28N 44°06' E 028°40'0 0.0
2017-Oct-17 10:58N 44°06' E 028°40'0 0.0
2017-Oct-17 10:28N 44°06' E 028°40'0 0.0
2017-Oct-17 09:58N 44°06' E 028°40'0 0.0
2017-Oct-17 09:28N 44°06' E 028°40'0 0.0
2017-Oct-17 08:58N 44°06' E 028°40'0 0.0
2017-Oct-17 08:28N 44°06' E 028°40'0 0.0
2017-Oct-17 07:58N 44°06' E 028°40'0 0.0
2017-Oct-17 07:28N 44°06' E 028°40'0 0.0
2017-Oct-17 06:58N 44°06' E 028°40'0 0.1
2017-Oct-17 06:28N 44°06' E 028°40'0 0.1
2017-Oct-17 05:58N 44°06' E 028°40'0 0.0
2017-Oct-17 05:28N 44°06' E 028°40'0 0.0
2017-Oct-17 04:58N 44°06' E 028°40'0 0.0
2017-Oct-17 04:28N 44°06' E 028°40'0 0.0
2017-Oct-17 03:58N 44°06' E 028°40'0 0.8
2017-Oct-17 03:30N 44°07' E 028°40'2 4.1
2017-Oct-17 03:01N 44°06' E 028°43'3 5.8
2017-Oct-17 02:30N 44°04' E 028°45'611.4
2017-Oct-17 02:01N 44°00' E 028°51'816.9
2017-Oct-17 01:30N 44°05' E 029°01'917.7
2017-Oct-17 01:00N 44°10' E 029°11'917.7
2017-Oct-17 00:31N 44°15' E 029°21'917.7
2017-Oct-17 00:01N 44°21' E 029°31'917.9
2017-Oct-16 23:31N 44°26' E 029°41'918.0
2017-Oct-16 23:00N 44°31' E 029°51'917.7
2017-Oct-16 22:30N 44°37' E 030°00'917.7
2017-Oct-16 22:01N 44°43' E 030°10'917.5
2017-Oct-16 21:30N 44°48' E 030°19'917.6
2017-Oct-16 21:00N 44°55' E 030°29'8016.7
2017-Oct-16 16:11N 46°13' E 030°57'616.6
2017-Oct-16 15:51N 46°17' E 030°53'617.1
2017-Oct-16 15:30N 46°23' E 030°51'714.1
2017-Oct-16 15:00N 46°30' E 030°47'2 2.2
2017-Oct-16 14:00N 46°30' E 030°44'0 0.0
2017-Oct-16 13:30N 46°30' E 030°44'0 0.0
2017-Oct-16 12:57N 46°30' E 030°44'0 0.0
2017-Oct-16 12:30N 46°30' E 030°44'0 0.0
2017-Oct-16 11:57N 46°30' E 030°44'0 0.0
2017-Oct-16 11:27N 46°30' E 030°44'0 0.0
2017-Oct-16 10:54N 46°30' E 030°44'0 0.0
2017-Oct-16 10:27N 46°30' E 030°44'0 0.0
2017-Oct-16 09:42N 46°30' E 030°44'0 0.0
2017-Oct-16 09:30N 46°30' E 030°44'0 0.0
2017-Oct-16 09:00N 46°30' E 030°44'0 0.0
2017-Oct-16 08:26N 46°30' E 030°44'0 0.0
2017-Oct-16 07:59N 46°30' E 030°44'0 0.0
2017-Oct-16 07:26N 46°30' E 030°44'0 0.0
2017-Oct-16 06:59N 46°30' E 030°44'0 0.0
2017-Oct-16 06:29N 46°30' E 030°44'0 0.0
2017-Oct-16 04:53N 46°30' E 030°44'0 0.0
2017-Oct-16 04:26N 46°30' E 030°44'0 0.0
2017-Oct-16 02:56N 46°30' E 030°44'0 0.0
2017-Oct-16 02:23N 46°30' E 030°44'0 0.0
2017-Oct-16 01:50N 46°30' E 030°44'0 0.0
2017-Oct-16 01:20N 46°30' E 030°44'0 0.0
2017-Oct-16 00:56N 46°30' E 030°44'0 0.0
2017-Oct-16 00:26N 46°30' E 030°44'0 0.0
2017-Oct-15 23:16N 46°30' E 030°44'0 0.0
2017-Oct-15 20:52N 46°30' E 030°44'0 0.0
2017-Oct-15 20:25N 46°30' E 030°44'0 0.4
2017-Oct-15 20:00N 46°30' E 030°44'2 4.2
2017-Oct-15 19:30N 46°30' E 030°47'3 5.2
2017-Oct-15 19:00N 46°29' E 030°50'0 0.6
2017-Oct-15 18:31N 46°29' E 030°51'1 1.2
2017-Oct-15 18:00N 46°28' E 030°51'1 2.4
2017-Oct-15 17:30N 46°27' E 030°51'1 2.4
2017-Oct-15 17:01N 46°26' E 030°52'2 4.0
2017-Oct-15 16:31N 46°24' E 030°52'4 8.7
2017-Oct-15 16:01N 46°20' E 030°54'33114.7
2017-Oct-14 17:32N 40°59' E 028°60'0 6.9
2017-Oct-14 17:29N 40°59' E 028°60'9 8.9
2017-Oct-14 16:26N 40°51' E 028°53'2 4.7
2017-Oct-14 16:00N 40°51' E 028°51'28113.3
2017-Oct-13 18:56N 37°44' E 024°19'47015.4
2017-Oct-12 12:20N 35°47' E 014°51'516.3
2017-Oct-12 12:00N 35°47' E 014°44'815.6
2017-Oct-12 11:30N 35°48' E 014°35'  
2017-Oct-08 15:01N 35°22' W 006°21'015.2
2017-Oct-08 14:59N 35°22' W 006°22'815.4
2017-Oct-08 14:28N 35°15' W 006°27'2415.9
2017-Oct-08 12:57N 34°54' W 006°42'  
Track history (hours):
 
Tides and Currents Weather Stations Pressure Air Temp Water Temp Dewpoint Dewpoint Depression Visibility Wind Speed Wind Dir Waves Ship Positions

Ludwig Schulte

Last reported at 2017-Oct-17 18:28 UTC. Time now 2017-Oct-17 18:50 UTC.
Position N 44°06' E 028°40'.

Length 175 m; draft 8.9 m.

Type: Ship (hazmat cat A). MMSI: 565970000.

Date/timePositionNaut miles runAvg speedWind from/ knotsBaromVisibWave heightAir tempDewpointWater temp
2017-Oct-17 18:28N 44°06' E 028°40'0 0.0
2017-Oct-17 17:58N 44°06' E 028°40'0 0.0
2017-Oct-17 17:28N 44°06' E 028°40'0 0.0
2017-Oct-17 16:58N 44°06' E 028°40'0 0.0
2017-Oct-17 16:28N 44°06' E 028°40'0 0.0
2017-Oct-17 15:58N 44°06' E 028°40'0 0.0
2017-Oct-17 15:19N 44°06' E 028°40'0 0.0
2017-Oct-17 14:58N 44°06' E 028°40'0 0.0
2017-Oct-17 14:28N 44°06' E 028°40'0 0.0
2017-Oct-17 13:58N 44°06' E 028°40'0 0.0
2017-Oct-17 13:28N 44°06' E 028°40'0 0.0
2017-Oct-17 12:58N 44°06' E 028°40'0 0.0
2017-Oct-17 12:28N 44°06' E 028°40'0 0.0
2017-Oct-17 11:58N 44°06' E 028°40'0 0.0
2017-Oct-17 11:28N 44°06' E 028°40'0 0.0
2017-Oct-17 10:58N 44°06' E 028°40'0 0.0
2017-Oct-17 10:28N 44°06' E 028°40'0 0.0
2017-Oct-17 09:58N 44°06' E 028°40'0 0.0
2017-Oct-17 09:28N 44°06' E 028°40'0 0.0
2017-Oct-17 08:58N 44°06' E 028°40'0 0.0
2017-Oct-17 08:28N 44°06' E 028°40'0 0.0
2017-Oct-17 07:58N 44°06' E 028°40'0 0.0
2017-Oct-17 07:28N 44°06' E 028°40'0 0.0
2017-Oct-17 06:58N 44°06' E 028°40'0 0.1
2017-Oct-17 06:28N 44°06' E 028°40'0 0.1
2017-Oct-17 05:58N 44°06' E 028°40'0 0.0
2017-Oct-17 05:28N 44°06' E 028°40'0 0.0
2017-Oct-17 04:58N 44°06' E 028°40'0 0.0
2017-Oct-17 04:28N 44°06' E 028°40'0 0.0
2017-Oct-17 03:58N 44°06' E 028°40'0 0.8
2017-Oct-17 03:30N 44°07' E 028°40'2 4.1
2017-Oct-17 03:01N 44°06' E 028°43'3 5.8
2017-Oct-17 02:30N 44°04' E 028°45'611.4
2017-Oct-17 02:01N 44°00' E 028°51'816.9
2017-Oct-17 01:30N 44°05' E 029°01'917.7
2017-Oct-17 01:00N 44°10' E 029°11'917.7
2017-Oct-17 00:31N 44°15' E 029°21'917.7
2017-Oct-17 00:01N 44°21' E 029°31'917.9
2017-Oct-16 23:31N 44°26' E 029°41'918.0
2017-Oct-16 23:00N 44°31' E 029°51'917.7
2017-Oct-16 22:30N 44°37' E 030°00'917.7
2017-Oct-16 22:01N 44°43' E 030°10'917.5
2017-Oct-16 21:30N 44°48' E 030°19'917.6
2017-Oct-16 21:00N 44°55' E 030°29'8016.7
2017-Oct-16 16:11N 46°13' E 030°57'616.6
2017-Oct-16 15:51N 46°17' E 030°53'617.1
2017-Oct-16 15:30N 46°23' E 030°51'714.1
2017-Oct-16 15:00N 46°30' E 030°47'2 2.2
2017-Oct-16 14:00N 46°30' E 030°44'0 0.0
2017-Oct-16 13:30N 46°30' E 030°44'0 0.0
2017-Oct-16 12:57N 46°30' E 030°44'0 0.0
2017-Oct-16 12:30N 46°30' E 030°44'0 0.0
2017-Oct-16 11:57N 46°30' E 030°44'0 0.0
2017-Oct-16 11:27N 46°30' E 030°44'0 0.0
2017-Oct-16 10:54N 46°30' E 030°44'0 0.0
2017-Oct-16 10:27N 46°30' E 030°44'0 0.0
2017-Oct-16 09:42N 46°30' E 030°44'0 0.0
2017-Oct-16 09:30N 46°30' E 030°44'0 0.0
2017-Oct-16 09:00N 46°30' E 030°44'0 0.0
2017-Oct-16 08:26N 46°30' E 030°44'0 0.0
2017-Oct-16 07:59N 46°30' E 030°44'0 0.0
2017-Oct-16 07:26N 46°30' E 030°44'0 0.0
2017-Oct-16 06:59N 46°30' E 030°44'0 0.0
2017-Oct-16 06:29N 46°30' E 030°44'0 0.0
2017-Oct-16 04:53N 46°30' E 030°44'0 0.0
2017-Oct-16 04:26N 46°30' E 030°44'0 0.0
2017-Oct-16 02:56N 46°30' E 030°44'0 0.0
2017-Oct-16 02:23N 46°30' E 030°44'0 0.0
2017-Oct-16 01:50N 46°30' E 030°44'0 0.0
2017-Oct-16 01:20N 46°30' E 030°44'0 0.0
2017-Oct-16 00:56N 46°30' E 030°44'0 0.0
2017-Oct-16 00:26N 46°30' E 030°44'0 0.0
2017-Oct-15 23:16N 46°30' E 030°44'0 0.0
2017-Oct-15 20:52N 46°30' E 030°44'0 0.0
2017-Oct-15 20:25N 46°30' E 030°44'0 0.4
2017-Oct-15 20:00N 46°30' E 030°44'2 4.2
2017-Oct-15 19:30N 46°30' E 030°47'3 5.2
2017-Oct-15 19:00N 46°29' E 030°50'0 0.6
2017-Oct-15 18:31N 46°29' E 030°51'1 1.2
2017-Oct-15 18:00N 46°28' E 030°51'1 2.4
2017-Oct-15 17:30N 46°27' E 030°51'1 2.4
2017-Oct-15 17:01N 46°26' E 030°52'2 4.0
2017-Oct-15 16:31N 46°24' E 030°52'4 8.7
2017-Oct-15 16:01N 46°20' E 030°54'33114.7
2017-Oct-14 17:32N 40°59' E 028°60'0 6.9
2017-Oct-14 17:29N 40°59' E 028°60'9 8.9
2017-Oct-14 16:26N 40°51' E 028°53'2 4.7
2017-Oct-14 16:00N 40°51' E 028°51'28113.3
2017-Oct-13 18:56N 37°44' E 024°19'47015.4
2017-Oct-12 12:20N 35°47' E 014°51'516.3
2017-Oct-12 12:00N 35°47' E 014°44'815.6
2017-Oct-12 11:30N 35°48' E 014°35'  
2017-Oct-08 15:01N 35°22' W 006°21'015.2
2017-Oct-08 14:59N 35°22' W 006°22'815.4
2017-Oct-08 14:28N 35°15' W 006°27'2415.9
2017-Oct-08 12:57N 34°54' W 006°42'  

Dump ship's entire track history